Time;durP1;ratioP1;P1;durP2;ratioP2;P2;SDS_P1;SDS_P2;PMS_P1;PMS_P2;Temp;Humidity;BMP_temperature;BMP_pressure;BME280_temperature;BME280_humidity;BME280_pressure;Samples;Min_cycle;Max_cycle;Signal;HPM_P1;HPM_P2
2024/04/04 00:00:31;;;;;;;;;;;;;;;14.10;49.09;99971.09;4914591;28;98042;-75
2024/04/04 00:03:00;;;;;;;;;;;;;;;14.09;49.06;99965.97;4915965;28;100310;-75
2024/04/04 00:05:28;;;;;;;;;;;;;;;14.09;48.78;99963.28;4920308;28;98977;-75
2024/04/04 00:07:56;;;;;;;;;;;;;;;14.09;49.04;99968.69;4919140;28;99245;-75
2024/04/04 00:10:23;;;;;;;;;;;;;;;14.10;48.88;99962.16;4921895;28;98209;-70
2024/04/04 00:12:50;;;;;;;;;;;;;;;14.09;49.10;99960.56;4937565;28;98603;-70
2024/04/04 00:15:16;;;;;;;;;;;;;;;14.07;49.03;99952.75;4921884;28;99179;-70
2024/04/04 00:17:45;;;;;;;;;;;;;;;14.08;48.95;99957.06;4938192;28;99050;-75
2024/04/04 00:20:15;;;;;;;;;;;;;;;14.08;49.04;99954.34;4937868;27;98363;-75
2024/04/04 00:22:42;;;;;;;;;;;;;;;14.08;48.79;99957.06;4925918;27;98186;-75
2024/04/04 00:25:08;;;;;;;;;;;;;;;14.07;49.07;99954.63;4951819;27;97920;-70
2024/04/04 00:27:37;;;;;;;;;;;;;;;14.07;49.08;99951.91;4943143;27;98595;-75
2024/04/04 00:30:04;;;;;;;;;;;;;;;14.06;48.83;99955.75;4928034;28;98499;-70
2024/04/04 00:32:34;;;;;;;;;;;;;;;14.05;48.93;99954.94;4956239;27;98590;-75
2024/04/04 00:35:00;;;;;;;;;;;;;;;14.05;49.15;99956.84;4935569;27;98615;-70
2024/04/04 00:37:27;;;;;;;;;;;;;;;14.04;49.10;99961.47;4941922;28;98386;-70
2024/04/04 00:39:54;;;;;;;;;;;;;;;14.04;49.16;99955.25;4935172;27;98338;-75
2024/04/04 00:42:20;;;;;;;;;;;;;;;14.04;49.03;99950.63;4934600;27;98763;-70
2024/04/04 00:44:47;;;;;;;;;;;;;;;14.04;49.12;99949.84;4936864;27;100069;-70
2024/04/04 00:47:14;;;;;;;;;;;;;;;14.03;49.20;99950.91;4941099;27;98374;-75
2024/04/04 00:49:40;;;;;;;;;;;;;;;14.03;49.16;99942.78;4925055;27;99660;-70
2024/04/04 00:52:09;;;;;;;;;;;;;;;14.02;48.77;99947.41;4954618;28;98502;-70
2024/04/04 00:54:44;;;;;;;;;;;;;;;14.03;49.05;99945.50;4940014;27;100470;-75
2024/04/04 00:57:14;;;;;;;;;;;;;;;14.02;48.84;99952.03;4951459;28;98286;-75
2024/04/04 00:59:41;;;;;;;;;;;;;;;14.00;48.83;99942.31;4940857;27;101394;-75
2024/04/04 01:02:08;;;;;;;;;;;;;;;14.02;48.88;99952.84;4915850;28;98465;-70
2024/04/04 01:04:34;;;;;;;;;;;;;;;14.00;48.99;99947.72;4936494;27;98185;-70
2024/04/04 01:07:00;;;;;;;;;;;;;;;14.00;48.77;99953.16;4938195;27;98248;-70
2024/04/04 01:09:26;;;;;;;;;;;;;;;14.02;49.14;99954.75;4939652;28;99007;-70
2024/04/04 01:11:53;;;;;;;;;;;;;;;14.00;49.01;99950.44;4931762;27;99188;-70
2024/04/04 01:14:21;;;;;;;;;;;;;;;14.01;48.84;99959.38;4942879;28;98420;-75
2024/04/04 01:16:47;;;;;;;;;;;;;;;14.00;48.81;99955.06;4938557;27;98724;-70
2024/04/04 01:19:16;;;;;;;;;;;;;;;14.00;49.19;99957.75;4917089;28;99522;-75
2024/04/04 01:21:45;;;;;;;;;;;;;;;14.00;48.88;99955.84;4922217;28;98046;-75
2024/04/04 01:24:12;;;;;;;;;;;;;;;14.00;48.76;99957.75;4913216;28;98263;-75
2024/04/04 01:26:38;;;;;;;;;;;;;;;14.00;49.08;99955.06;4918111;28;98609;-70
2024/04/04 01:29:04;;;;;;;;;;;;;;;13.99;49.06;99956.97;4918094;28;98406;-70
2024/04/04 01:31:31;;;;;;;;;;;;;;;14.00;49.06;99961.28;4938024;28;102538;-70
2024/04/04 01:33:57;;;;;;;;;;;;;;;14.00;48.84;99963.19;4913229;28;98722;-70
2024/04/04 01:36:23;;;;;;;;;;;;;;;13.99;49.08;99959.69;4919966;28;99345;-75
2024/04/04 01:38:50;;;;;;;;;;;;;;;14.00;49.07;99965.91;4907819;28;98284;-70
2024/04/04 01:41:17;;;;;;;;;;;;;;;14.00;49.16;99957.75;4907469;28;98137;-70
2024/04/04 01:43:44;;;;;;;;;;;;;;;13.98;48.75;99947.22;4921118;28;100090;-75
2024/04/04 01:46:11;;;;;;;;;;;;;;;14.00;48.88;99957.75;4939067;28;106348;-70
2024/04/04 01:48:37;;;;;;;;;;;;;;;13.98;48.95;99952.63;4919583;28;98228;-70
2024/04/04 01:51:06;;;;;;;;;;;;;;;13.99;48.71;99953.47;4923207;28;97991;-75
2024/04/04 01:53:35;;;;;;;;;;;;;;;14.00;49.19;99960.47;4935604;28;98376;-70
2024/04/04 01:56:04;;;;;;;;;;;;;;;13.99;48.71;99972.44;4926385;28;98115;-75
2024/04/04 01:58:31;;;;;;;;;;;;;;;13.98;48.91;99963.47;4956445;28;98423;-70
2024/04/04 02:00:57;;;;;;;;;;;;;;;13.99;48.90;99967.00;4940334;28;99163;-71
2024/04/04 02:03:23;;;;;;;;;;;;;;;13.98;49.23;99962.66;4924897;28;98146;-71
2024/04/04 02:05:49;;;;;;;;;;;;;;;13.98;49.21;99966.19;4926090;28;97998;-71
2024/04/04 02:08:16;;;;;;;;;;;;;;;13.96;48.89;99959.47;4919576;28;98865;-74
2024/04/04 02:10:43;;;;;;;;;;;;;;;13.95;48.89;99964.09;4926735;28;98033;-71
2024/04/04 02:13:09;;;;;;;;;;;;;;;13.96;48.82;99959.47;4939327;28;98090;-74
2024/04/04 02:15:41;;;;;;;;;;;;;;;13.94;48.80;99959.75;4929176;28;98551;-71
2024/04/04 02:18:07;;;;;;;;;;;;;;;13.94;48.92;99962.47;4939136;28;98556;-71
2024/04/04 02:20:36;;;;;;;;;;;;;;;13.95;49.24;99960.56;4919624;27;98698;-74
2024/04/04 02:23:03;;;;;;;;;;;;;;;13.94;49.13;99961.66;4936838;27;98159;-71
2024/04/04 02:25:29;;;;;;;;;;;;;;;13.92;49.22;99964.69;4937321;28;98273;-71
2024/04/04 02:27:55;;;;;;;;;;;;;;;13.92;49.17;99967.41;4956392;27;99237;-71
2024/04/04 02:30:28;;;;;;;;;;;;;;;13.92;49.15;99966.59;4942092;28;98150;-71
2024/04/04 02:32:57;;;;;;;;;;;;;;;13.91;49.00;99963.09;4935017;27;98292;-74
2024/04/04 02:35:23;;;;;;;;;;;;;;;13.90;49.25;99961.47;4937983;27;98319;-71
2024/04/04 02:37:51;;;;;;;;;;;;;;;13.89;49.15;99959.88;4925458;27;97984;-71
2024/04/04 02:40:19;;;;;;;;;;;;;;;13.89;48.91;99967.19;4922940;28;97983;-74
2024/04/04 02:42:46;;;;;;;;;;;;;;;13.89;49.15;99965.28;4939599;28;100398;-70
2024/04/04 02:45:14;;;;;;;;;;;;;;;13.88;49.16;99966.41;4936980;27;98887;-74
2024/04/04 02:47:43;;;;;;;;;;;;;;;13.87;49.30;99967.50;4938990;28;100779;-74
2024/04/04 02:50:10;;;;;;;;;;;;;;;13.87;49.24;99963.97;4939124;27;98245;-70
2024/04/04 02:52:38;;;;;;;;;;;;;;;13.86;49.15;99968.59;4942999;28;99371;-75
2024/04/04 02:55:05;;;;;;;;;;;;;;;13.87;49.13;99963.97;4937626;27;98084;-70
2024/04/04 02:57:38;;;;;;;;;;;;;;;13.85;48.95;99961.56;4917961;28;100113;-74
2024/04/04 03:00:08;;;;;;;;;;;;;;;13.85;49.04;99967.00;4940649;27;98014;-74
2024/04/04 03:02:38;;;;;;;;;;;;;;;13.85;49.15;99969.69;4955660;27;98162;-74
2024/04/04 03:05:05;;;;;;;;;;;;;;;13.84;49.32;99964.59;4940893;27;98016;-74
2024/04/04 03:07:34;;;;;;;;;;;;;;;13.85;48.86;99968.91;4951493;27;98567;-69
2024/04/04 03:10:03;;;;;;;;;;;;;;;13.83;49.01;99965.69;4918253;27;99229;-74
2024/04/04 03:12:29;;;;;;;;;;;;;;;13.83;49.29;99962.97;4920419;27;98036;-70
2024/04/04 03:15:01;;;;;;;;;;;;;;;13.82;48.92;99962.16;4927400;27;98605;-74
2024/04/04 03:17:28;;;;;;;;;;;;;;;13.81;49.13;99976.81;4934664;28;99220;-70
2024/04/04 03:19:54;;;;;;;;;;;;;;;13.81;49.30;99973.31;4937270;27;98326;-74
2024/04/04 03:22:24;;;;;;;;;;;;;;;13.79;49.00;99972.81;4935784;27;98078;-74
2024/04/04 03:24:51;;;;;;;;;;;;;;;13.79;49.29;99972.81;4926758;27;98190;-74
2024/04/04 03:27:21;;;;;;;;;;;;;;;13.78;49.36;99976.63;4941221;27;98299;-74
2024/04/04 03:29:47;;;;;;;;;;;;;;;13.75;49.02;99969.88;4938935;28;98818;-74
2024/04/04 03:32:17;;;;;;;;;;;;;;;13.73;49.01;99967.50;4919507;27;99840;-74
2024/04/04 03:34:46;;;;;;;;;;;;;;;13.72;48.89;99963.19;4941140;28;98323;-74
2024/04/04 03:37:15;;;;;;;;;;;;;;;13.71;49.24;99966.19;4917118;27;98316;-74
2024/04/04 03:39:44;;;;;;;;;;;;;;;13.71;48.99;99963.47;4917189;27;97989;-74
2024/04/04 03:42:11;;;;;;;;;;;;;;;13.68;49.35;99958.66;4953904;27;99655;-70
2024/04/04 03:44:42;;;;;;;;;;;;;;;13.67;49.21;99957.84;4937509;28;98625;-73
2024/04/04 03:47:08;;;;;;;;;;;;;;;13.67;49.33;99960.56;4958674;27;99502;-74
2024/04/04 03:49:35;;;;;;;;;;;;;;;13.66;49.28;99958.94;4938947;27;98148;-74
2024/04/04 03:52:02;;;;;;;;;;;;;;;13.66;49.10;99969.00;4936476;27;98272;-74
2024/04/04 03:54:29;;;;;;;;;;;;;;;13.66;48.96;99969.78;4941473;27;98164;-69
2024/04/04 03:56:55;;;;;;;;;;;;;;;13.65;49.30;99967.38;4939915;27;98630;-74
2024/04/04 03:59:23;;;;;;;;;;;;;;;13.66;49.28;99975.19;4954137;27;98445;-70
2024/04/04 04:01:53;;;;;;;;;;;;;;;13.66;48.95;99977.13;4942290;27;97954;-74
2024/04/04 04:04:21;;;;;;;;;;;;;;;13.65;49.30;99978.22;4934325;27;98283;-74
2024/04/04 04:06:48;;;;;;;;;;;;;;;13.64;48.89;99974.72;4920963;27;100152;-74
2024/04/04 04:09:14;;;;;;;;;;;;;;;13.64;49.35;99980.13;4936697;28;98214;-74
2024/04/04 04:11:42;;;;;;;;;;;;;;;13.65;49.18;99983.63;4939650;27;98374;-74
2024/04/04 04:14:12;;;;;;;;;;;;;;;13.65;48.93;99991.75;4959549;27;98171;-74
2024/04/04 04:16:38;;;;;;;;;;;;;;;13.65;49.30;99991.75;4935946;27;99539;-70
2024/04/04 04:19:06;;;;;;;;;;;;;;;13.66;49.28;99993.34;4934506;27;98138;-74
2024/04/04 04:21:32;;;;;;;;;;;;;;;13.65;48.94;100011.53;4916249;27;98121;-71
2024/04/04 04:24:00;;;;;;;;;;;;;;;13.65;48.96;100002.59;4938250;27;98234;-70
2024/04/04 04:26:30;;;;;;;;;;;;;;;13.66;49.31;100005.00;4952339;27;99398;-74
2024/04/04 04:28:56;;;;;;;;;;;;;;;13.67;49.38;100003.09;4921464;27;98081;-70
2024/04/04 04:31:32;;;;;;;;;;;;;;;13.67;49.03;100013.91;4945341;28;98092;-74
2024/04/04 04:34:00;;;;;;;;;;;;;;;13.67;48.93;100013.91;4942042;27;100212;-70
2024/04/04 04:36:30;;;;;;;;;;;;;;;13.66;48.95;100021.25;4925779;27;98281;-69
2024/04/04 04:39:00;;;;;;;;;;;;;;;13.67;49.26;100006.59;4954330;27;100598;-75
2024/04/04 04:41:28;;;;;;;;;;;;;;;13.69;49.03;100019.84;4938346;27;98348;-71
2024/04/04 04:43:55;;;;;;;;;;;;;;;13.68;49.15;100021.75;4933677;27;98262;-75
2024/04/04 04:46:22;;;;;;;;;;;;;;;13.69;49.34;100025.28;4918377;27;98425;-71
2024/04/04 04:48:48;;;;;;;;;;;;;;;13.70;49.11;100035.78;4926789;27;98590;-70
2024/04/04 04:51:14;;;;;;;;;;;;;;;13.71;48.94;100025.75;4926100;27;98085;-70
2024/04/04 04:53:44;;;;;;;;;;;;;;;13.71;49.29;100015.72;4939107;27;100142;-72
2024/04/04 04:56:11;;;;;;;;;;;;;;;13.73;48.89;100024.38;4937433;28;98234;-74
2024/04/04 04:58:38;;;;;;;;;;;;;;;13.77;49.24;100015.66;4939441;28;102153;-70
2024/04/04 05:01:08;;;;;;;;;;;;;;;13.78;49.13;100020.75;4940871;27;99157;-74
2024/04/04 05:03:35;;;;;;;;;;;;;;;13.81;48.88;100016.66;4966152;27;97966;-70
2024/04/04 05:06:01;;;;;;;;;;;;;;;13.83;49.14;100025.28;4939442;27;99988;-70
2024/04/04 05:08:28;;;;;;;;;;;;;;;13.85;49.29;100028.50;4943833;28;100013;-74
2024/04/04 05:10:57;;;;;;;;;;;;;;;13.87;48.91;100042.53;4936724;27;98251;-75
2024/04/04 05:13:29;;;;;;;;;;;;;;;13.91;49.12;100043.53;4935750;28;98366;-74
2024/04/04 05:15:58;;;;;;;;;;;;;;;13.94;48.83;100042.94;4937830;27;98023;-74
2024/04/04 05:18:26;;;;;;;;;;;;;;;13.96;48.92;100048.88;4936917;27;98473;-70
2024/04/04 05:21:03;;;;;;;;;;;;;;;14.02;48.84;100046.88;4954543;27;98232;-75
2024/04/04 05:23:30;;;;;;;;;;;;;;;14.04;48.68;100050.91;4932184;27;98123;-70
2024/04/04 05:25:56;;;;;;;;;;;;;;;14.09;48.72;100052.69;4933557;27;98824;-70
2024/04/04 05:28:29;;;;;;;;;;;;;;;14.13;48.83;100051.00;4935616;28;98359;-74
2024/04/04 05:31:00;;;;;;;;;;;;;;;14.17;48.93;100049.28;4920295;27;99868;-75
2024/04/04 05:33:27;;;;;;;;;;;;;;;14.23;48.71;100045.38;4947738;27;98195;-74
2024/04/04 05:35:54;;;;;;;;;;;;;;;14.30;49.00;100042.25;4936299;27;98030;-74
2024/04/04 05:38:23;;;;;;;;;;;;;;;14.32;48.67;100046.28;4932029;28;98233;-75
2024/04/04 05:40:49;;;;;;;;;;;;;;;14.38;49.00;100055.09;4950600;27;98121;-75
2024/04/04 05:43:15;;;;;;;;;;;;;;;14.44;48.54;100059.34;4937124;27;99811;-71
2024/04/04 05:45:44;;;;;;;;;;;;;;;14.56;48.41;100064.28;4934452;27;99988;-75
2024/04/04 05:48:11;;;;;;;;;;;;;;;14.70;48.84;100063.16;4934121;28;99734;-74
2024/04/04 05:50:38;;;;;;;;;;;;;;;14.71;48.46;100064.75;4937018;27;98557;-70
2024/04/04 05:53:05;;;;;;;;;;;;;;;14.70;48.62;100057.72;4938697;27;98033;-74
2024/04/04 05:55:32;;;;;;;;;;;;;;;14.77;48.67;100054.56;4965601;27;99595;-70
2024/04/04 05:57:58;;;;;;;;;;;;;;;14.88;48.57;100066.81;4932445;27;98645;-70
2024/04/04 06:00:25;;;;;;;;;;;;;;;14.98;48.60;100063.88;4935942;28;102486;-70
2024/04/04 06:02:55;;;;;;;;;;;;;;;15.04;48.29;100061.03;4917105;27;98463;-74
2024/04/04 06:05:22;;;;;;;;;;;;;;;15.06;48.60;100056.13;4935769;28;103449;-70
2024/04/04 06:07:49;;;;;;;;;;;;;;;15.13;48.55;100070.06;4919825;27;98382;-74
2024/04/04 06:10:16;;;;;;;;;;;;;;;15.16;48.59;100066.72;4934561;27;98284;-74
2024/04/04 06:12:43;;;;;;;;;;;;;;;15.16;48.43;100072.16;4932053;28;98225;-70
2024/04/04 06:15:09;;;;;;;;;;;;;;;15.17;48.57;100071.88;4932254;27;107209;-70
2024/04/04 06:17:35;;;;;;;;;;;;;;;15.26;48.39;100057.56;4920500;27;98263;-74
2024/04/04 06:20:01;;;;;;;;;;;;;;;15.34;48.35;100063.06;4931597;27;98566;-70
2024/04/04 06:22:28;;;;;;;;;;;;;;;15.46;48.37;100060.56;4935425;27;98394;-74
2024/04/04 06:24:55;;;;;;;;;;;;;;;15.59;48.20;100063.53;4936222;27;98855;-70
2024/04/04 06:27:25;;;;;;;;;;;;;;;15.69;48.14;100069.53;4955534;28;100972;-73
2024/04/04 06:29:51;;;;;;;;;;;;;;;15.82;48.04;100065.13;4934832;27;98318;-70
2024/04/04 06:32:20;;;;;;;;;;;;;;;16.00;48.01;100067.94;4939425;27;98730;-74
2024/04/04 06:34:48;;;;;;;;;;;;;;;16.12;48.06;100068.97;4950608;27;98164;-74
2024/04/04 06:37:16;;;;;;;;;;;;;;;16.27;47.92;100075.06;4918322;27;98264;-70
2024/04/04 06:39:43;;;;;;;;;;;;;;;16.44;47.73;100073.22;4937053;27;98095;-70
2024/04/04 06:42:10;;;;;;;;;;;;;;;16.77;47.50;100077.47;4957616;27;98327;-74
2024/04/04 06:44:36;;;;;;;;;;;;;;;17.11;47.31;100074.78;4940459;27;98909;-70
2024/04/04 06:47:03;;;;;;;;;;;;;;;17.31;47.30;100073.34;4922475;27;99045;-74
2024/04/04 06:49:30;;;;;;;;;;;;;;;17.47;47.13;100072.84;4952578;27;98510;-74
2024/04/04 06:51:56;;;;;;;;;;;;;;;17.67;47.03;100072.97;4937342;27;98296;-70
2024/04/04 06:54:23;;;;;;;;;;;;;;;17.73;47.08;100070.09;4941888;27;98481;-74
2024/04/04 06:56:49;;;;;;;;;;;;;;;17.77;47.16;100080.06;4946718;27;98625;-71
2024/04/04 06:59:16;;;;;;;;;;;;;;;17.91;47.19;100082.56;4933244;28;98396;-71
2024/04/04 07:01:48;;;;;;;;;;;;;;;18.03;47.07;100073.69;4922392;27;98750;-74
2024/04/04 07:04:15;;;;;;;;;;;;;;;18.13;47.12;100076.09;4933892;28;101618;-70
2024/04/04 07:06:41;;;;;;;;;;;;;;;18.33;47.05;100078.06;4925723;27;99917;-70
2024/04/04 07:09:09;;;;;;;;;;;;;;;18.26;47.10;100080.50;4923055;27;98889;-73
2024/04/04 07:11:35;;;;;;;;;;;;;;;18.35;47.19;100083.19;4954607;27;98338;-70
2024/04/04 07:14:08;;;;;;;;;;;;;;;18.44;47.03;100092.16;4940358;27;98376;-74
2024/04/04 07:16:39;;;;;;;;;;;;;;;18.55;47.19;100084.38;4935530;27;98748;-75
2024/04/04 07:19:07;;;;;;;;;;;;;;;18.58;47.11;100097.38;4917924;27;98960;-74
2024/04/04 07:21:34;;;;;;;;;;;;;;;18.67;47.01;100098.13;4953212;27;99209;-74
2024/04/04 07:24:00;;;;;;;;;;;;;;;18.67;47.24;100098.13;4935304;27;98292;-70
2024/04/04 07:26:30;;;;;;;;;;;;;;;18.74;47.27;100105.81;4932392;28;98131;-74
2024/04/04 07:28:58;;;;;;;;;;;;;;;18.89;47.00;100095.13;4952111;27;98584;-75
2024/04/04 07:31:24;;;;;;;;;;;;;;;18.88;47.24;100100.91;4933369;28;98363;-70
2024/04/04 07:33:51;;;;;;;;;;;;;;;18.86;47.42;100101.25;4933576;27;98692;-70
2024/04/04 07:36:18;;;;;;;;;;;;;;;18.92;47.30;100092.88;4935671;28;98101;-75
2024/04/04 07:38:48;;;;;;;;;;;;;;;18.94;47.26;100096.84;4914970;27;98548;-74
2024/04/04 07:41:18;;;;;;;;;;;;;;;19.23;46.79;100098.72;4934265;27;98526;-74
2024/04/04 07:43:49;;;;;;;;;;;;;;;19.55;46.56;100097.16;4933198;27;98692;-75
2024/04/04 07:46:17;;;;;;;;;;;;;;;19.88;46.33;100098.31;4928838;28;98488;-74
2024/04/04 07:48:44;;;;;;;;;;;;;;;20.24;46.11;100095.63;4935047;27;98161;-75
2024/04/04 07:51:13;;;;;;;;;;;;;;;20.67;45.73;100104.44;4914729;28;98337;-71
2024/04/04 07:53:39;;;;;;;;;;;;;;;21.03;45.51;100104.38;4915650;27;98419;-72
2024/04/04 07:56:08;;;;;;;;;;;;;;;21.44;45.35;100098.91;4944238;28;98179;-75
2024/04/04 07:58:34;;;;;;;;;;;;;;;21.54;45.40;100104.72;4932022;28;99210;-71
2024/04/04 08:01:02;;;;;;;;;;;;;;;21.79;45.29;100110.84;4927247;28;98442;-75
2024/04/04 08:03:29;;;;;;;;;;;;;;;22.23;45.16;100099.06;4949139;27;98333;-75
2024/04/04 08:05:57;;;;;;;;;;;;;;;22.78;44.72;100099.97;4930030;27;99499;-75
2024/04/04 08:08:23;;;;;;;;;;;;;;;23.36;44.79;100096.53;4936309;28;98480;-75
2024/04/04 08:10:51;;;;;;;;;;;;;;;23.96;44.22;100097.69;4932559;27;98416;-75
2024/04/04 08:13:17;;;;;;;;;;;;;;;24.62;43.76;100097.59;4915851;27;98724;-72
2024/04/04 08:15:44;;;;;;;;;;;;;;;25.28;43.72;100084.34;4931280;28;98115;-71
2024/04/04 08:18:15;;;;;;;;;;;;;;;25.90;43.65;100087.41;4926804;28;98299;-73
2024/04/04 08:20:49;;;;;;;;;;;;;;;26.46;43.18;100089.09;4968193;27;98447;-72
2024/04/04 08:23:17;;;;;;;;;;;;;;;27.08;43.37;100089.06;4913664;27;98856;-75
2024/04/04 08:25:57;;;;;;;;;;;;;;;27.64;43.28;100090.47;4930089;27;98394;-72
2024/04/04 08:28:23;;;;;;;;;;;;;;;28.16;42.81;100092.13;4935495;28;99847;-72
2024/04/04 08:31:00;;;;;;;;;;;;;;;28.74;42.60;100093.69;4936982;27;98675;-73
2024/04/04 08:33:28;;;;;;;;;;;;;;;29.51;42.60;100089.03;4939771;28;99864;-75
2024/04/04 08:35:54;;;;;;;;;;;;;;;30.15;42.05;100079.53;4936673;27;101824;-74
2024/04/04 08:38:22;;;;;;;;;;;;;;;30.74;42.15;100087.75;4931217;27;102412;-75
2024/04/04 08:40:49;;;;;;;;;;;;;;;31.46;41.82;100092.47;4936723;27;99108;-73
2024/04/04 08:43:18;;;;;;;;;;;;;;;32.23;41.83;100088.94;4935970;28;98474;-74
2024/04/04 08:45:48;;;;;;;;;;;;;;;31.88;42.18;100095.88;4934765;27;99802;-73
2024/04/04 08:48:18;;;;;;;;;;;;;;;31.90;42.62;100087.88;4939035;27;98178;-75
2024/04/04 08:50:47;;;;;;;;;;;;;;;31.47;43.29;100082.91;4933775;27;98428;-73
2024/04/04 08:53:19;;;;;;;;;;;;;;;32.64;41.83;100074.66;4919318;27;98464;-75
2024/04/04 08:55:46;;;;;;;;;;;;;;;32.32;42.85;100075.22;4947582;27;98238;-76
2024/04/04 08:58:13;;;;;;;;;;;;;;;33.72;41.48;100070.47;4937868;28;100834;-75
2024/04/04 09:00:40;;;;;;;;;;;;;;;34.48;41.03;100056.19;4916779;27;98444;-74
2024/04/04 09:03:08;;;;;;;;;;;;;;;35.33;40.71;100049.41;4959615;27;98340;-72
2024/04/04 09:05:35;;;;;;;;;;;;;;;36.12;40.44;100051.31;4944280;27;100313;-72
2024/04/04 09:08:06;;;;;;;;;;;;;;;36.80;40.41;100048.91;4930798;27;98905;-72
2024/04/04 09:10:32;;;;;;;;;;;;;;;37.47;39.86;100053.25;4935841;27;98357;-72
2024/04/04 09:13:03;;;;;;;;;;;;;;;38.07;40.18;100046.41;4938002;27;98613;-72
2024/04/04 09:15:30;;;;;;;;;;;;;;;38.66;39.61;100044.25;4937348;27;99991;-72
2024/04/04 09:18:10;;;;;;;;;;;;;;;39.21;39.63;100044.13;4935048;27;99892;-72
2024/04/04 09:20:38;;;;;;;;;;;;;;;39.67;39.53;100040.38;4914145;28;98134;-72
2024/04/04 09:23:06;;;;;;;;;;;;;;;39.74;39.90;100038.00;4932159;28;98190;-72
2024/04/04 09:25:33;;;;;;;;;;;;;;;39.96;39.92;100045.38;4938063;28;99673;-69
2024/04/04 09:28:00;;;;;;;;;;;;;;;39.93;40.19;100035.06;4914942;28;98584;-70
2024/04/04 09:30:29;;;;;;;;;;;;;;;40.30;40.03;100038.44;4912721;28;98323;-69
2024/04/04 09:32:56;;;;;;;;;;;;;;;39.82;40.38;100035.63;4906127;28;98773;-70
2024/04/04 09:35:23;;;;;;;;;;;;;;;38.17;41.55;100033.13;4915518;28;99096;-72
2024/04/04 09:37:49;;;;;;;;;;;;;;;36.96;42.70;100022.69;4914253;28;98558;-72
2024/04/04 09:40:16;;;;;;;;;;;;;;;35.58;43.83;100029.06;4901624;28;100598;-72
2024/04/04 09:42:44;;;;;;;;;;;;;;;34.29;44.57;100035.50;4910700;28;98254;-69
2024/04/04 09:45:13;;;;;;;;;;;;;;;33.30;44.61;100031.09;4897119;28;99655;-70
2024/04/04 09:47:42;;;;;;;;;;;;;;;32.39;45.12;100024.97;4912267;28;98703;-70
2024/04/04 09:50:09;;;;;;;;;;;;;;;31.67;45.12;100025.31;4942095;27;98307;-71
2024/04/04 09:52:37;;;;;;;;;;;;;;;31.25;45.12;100024.72;4899849;28;98251;-72
2024/04/04 09:55:07;;;;;;;;;;;;;;;30.76;45.32;100026.91;4898622;28;100581;-71
2024/04/04 09:57:36;;;;;;;;;;;;;;;29.90;45.95;100021.38;4897860;28;99615;-71
2024/04/04 10:00:19;;;;;;;;;;;;;;;29.20;45.97;100035.31;4903691;28;98471;-72
2024/04/04 10:02:49;;;;;;;;;;;;;;;28.71;46.02;100031.50;4938320;28;98450;-71
2024/04/04 10:05:19;;;;;;;;;;;;;;;28.14;46.67;100024.06;4920407;28;98630;-72
2024/04/04 10:07:47;;;;;;;;;;;;;;;27.58;46.43;100022.03;4920565;28;98690;-72
2024/04/04 10:10:19;;;;;;;;;;;;;;;27.14;46.63;100026.66;4915020;28;102889;-71
2024/04/04 10:12:52;;;;;;;;;;;;;;;26.93;46.60;100015.50;4920272;28;99026;-71
2024/04/04 10:15:19;;;;;;;;;;;;;;;27.28;45.49;100014.09;4904959;28;98083;-71
2024/04/04 10:17:54;;;;;;;;;;;;;;;27.02;45.73;100009.63;4918614;28;99331;-71
2024/04/04 10:20:23;;;;;;;;;;;;;;;26.60;45.98;100008.22;4937886;27;98041;-71
2024/04/04 10:23:01;;;;;;;;;;;;;;;26.13;46.35;100021.75;4934517;27;98681;-71
2024/04/04 10:25:27;;;;;;;;;;;;;;;25.87;46.32;100016.41;4939197;28;99534;-70
2024/04/04 10:28:04;;;;;;;;;;;;;;;25.50;46.56;100030.19;4939051;27;98430;-71
2024/04/04 10:30:38;;;;;;;;;;;;;;;25.12;46.56;100030.19;4925555;28;99076;-72
2024/04/04 10:33:14;;;;;;;;;;;;;;;24.74;46.69;100036.75;4920747;27;98718;-71
2024/04/04 10:35:40;;;;;;;;;;;;;;;24.36;46.68;100044.06;4939529;28;98528;-71
2024/04/04 10:38:13;;;;;;;;;;;;;;;23.96;47.08;100033.59;4937035;27;98197;-71
2024/04/04 10:40:40;;;;;;;;;;;;;;;23.66;47.22;100031.53;4937274;27;99387;-72
2024/04/04 10:43:09;;;;;;;;;;;;;;;23.44;47.29;100024.00;4938803;27;100004;-73
2024/04/04 10:45:39;;;;;;;;;;;;;;;23.31;46.98;100023.38;4935777;27;98344;-73
2024/04/04 10:48:06;;;;;;;;;;;;;;;23.21;46.95;100013.75;4936832;27;98549;-73
2024/04/04 10:50:33;;;;;;;;;;;;;;;23.20;46.63;100006.69;4938583;27;97995;-73
2024/04/04 10:53:00;;;;;;;;;;;;;;;23.13;46.81;100011.25;4951367;27;98333;-73
2024/04/04 10:55:27;;;;;;;;;;;;;;;22.99;46.71;100004.31;4956752;27;98387;-73
2024/04/04 10:57:54;;;;;;;;;;;;;;;22.84;46.97;100002.41;4933846;27;99641;-73
2024/04/04 11:00:21;;;;;;;;;;;;;;;22.73;46.92;99999.41;4933327;27;98103;-73
2024/04/04 11:02:48;;;;;;;;;;;;;;;22.68;46.89;100007.94;4933964;28;98587;-73
2024/04/04 11:05:18;;;;;;;;;;;;;;;22.64;46.66;99998.03;4936493;27;98086;-73
2024/04/04 11:07:46;;;;;;;;;;;;;;;22.71;46.62;99995.44;4936334;28;105104;-73
2024/04/04 11:10:12;;;;;;;;;;;;;;;23.05;46.14;99996.56;4932625;27;98428;-73
2024/04/04 11:12:39;;;;;;;;;;;;;;;23.64;45.66;99989.78;4920592;27;99151;-73
2024/04/04 11:15:06;;;;;;;;;;;;;;;23.86;45.32;99988.25;4936897;27;98257;-73
2024/04/04 11:17:35;;;;;;;;;;;;;;;24.22;45.33;99988.78;4933757;27;99587;-73
2024/04/04 11:20:05;;;;;;;;;;;;;;;24.42;45.08;99976.53;4936998;28;98310;-73
2024/04/04 11:22:36;;;;;;;;;;;;;;;25.59;44.03;99972.75;4945519;28;98941;-74
2024/04/04 11:25:05;;;;;;;;;;;;;;;26.13;43.60;99977.56;4904057;28;98268;-74
2024/04/04 11:27:32;;;;;;;;;;;;;;;26.75;43.20;99968.44;4928708;28;98156;-74
2024/04/04 11:30:00;;;;;;;;;;;;;;;26.30;44.24;99967.81;4918922;28;98484;-74
2024/04/04 11:32:27;;;;;;;;;;;;;;;26.46;44.22;99950.16;4918543;28;98330;-74
2024/04/04 11:34:56;;;;;;;;;;;;;;;26.48;44.29;99956.88;4918794;28;98532;-74
2024/04/04 11:37:25;;;;;;;;;;;;;;;26.27;44.67;99956.72;4914648;28;98481;-73
2024/04/04 11:39:54;;;;;;;;;;;;;;;26.12;44.97;99953.88;4919049;28;98632;-73
2024/04/04 11:42:21;;;;;;;;;;;;;;;26.21;44.85;99939.72;4915774;28;99532;-73
2024/04/04 11:44:47;;;;;;;;;;;;;;;27.06;43.87;99935.75;4921079;28;98171;-73
2024/04/04 11:47:15;;;;;;;;;;;;;;;27.73;43.32;99931.50;4902816;28;98212;-74
2024/04/04 11:49:41;;;;;;;;;;;;;;;27.98;43.50;99926.78;4911701;28;98397;-74
2024/04/04 11:52:08;;;;;;;;;;;;;;;27.64;44.00;99918.84;4912203;28;98284;-74
2024/04/04 11:54:35;;;;;;;;;;;;;;;27.19;44.64;99920.41;4919075;28;99031;-74
2024/04/04 11:57:02;;;;;;;;;;;;;;;26.75;45.33;99926.97;4919388;28;100005;-74
2024/04/04 11:59:29;;;;;;;;;;;;;;;26.36;45.59;99922.03;4914141;28;98219;-74
2024/04/04 12:01:55;;;;;;;;;;;;;;;26.02;45.65;99915.97;4903580;28;98098;-73
2024/04/04 12:04:22;;;;;;;;;;;;;;;25.63;46.05;99916.44;4900885;28;99161;-73
2024/04/04 12:06:50;;;;;;;;;;;;;;;25.25;46.26;99912.16;4898190;28;98349;-74
2024/04/04 12:09:17;;;;;;;;;;;;;;;24.92;46.70;99907.47;4914255;28;98353;-74
2024/04/04 12:11:44;;;;;;;;;;;;;;;24.59;46.90;99920.06;4930450;28;98471;-73
2024/04/04 12:14:12;;;;;;;;;;;;;;;24.29;46.79;99909.06;4917675;28;98190;-73
2024/04/04 12:16:40;;;;;;;;;;;;;;;24.07;46.93;99910.69;4929615;28;99090;-72
2024/04/04 12:21:51;;;;;;;;;;;;;;;23.87;46.86;99911.97;4940013;28;100009;-71
2024/04/04 12:24:17;;;;;;;;;;;;;;;23.81;46.85;99913.44;4926802;28;98239;-71
2024/04/04 12:26:44;;;;;;;;;;;;;;;23.70;46.53;99900.34;4908947;28;99995;-72
2024/04/04 12:29:11;;;;;;;;;;;;;;;23.57;46.74;99903.63;4909366;27;103326;-72
2024/04/04 12:31:38;;;;;;;;;;;;;;;23.41;46.74;99904.53;4922730;28;98507;-72
2024/04/04 12:34:05;;;;;;;;;;;;;;;23.25;46.69;99904.66;4920370;28;98104;-72
2024/04/04 12:36:32;;;;;;;;;;;;;;;23.16;46.83;99895.88;4917066;28;98774;-72
2024/04/04 12:38:59;;;;;;;;;;;;;;;23.06;46.95;99899.22;4951219;28;98369;-73
2024/04/04 12:41:26;;;;;;;;;;;;;;;23.00;46.79;99901.47;4930012;28;98257;-73
2024/04/04 12:43:52;;;;;;;;;;;;;;;22.79;46.90;99892.78;4945420;27;99454;-72
2024/04/04 12:46:19;;;;;;;;;;;;;;;22.64;47.04;99896.44;4930453;28;98753;-72